createdAt,value
2022-09-10T00:01:02.839Z,1.80
2022-09-10T00:03:29.887Z,1.60
2022-09-10T00:05:56.623Z,1.75
2022-09-10T00:08:23.454Z,1.70
2022-09-10T00:10:52.039Z,1.65
2022-09-10T00:13:22.231Z,1.75
2022-09-10T00:15:54.737Z,1.65
2022-09-10T00:18:22.852Z,1.60
2022-09-10T00:20:52.908Z,1.50
2022-09-10T00:23:23.751Z,1.80
2022-09-10T00:25:52.161Z,1.73
2022-09-10T00:28:22.961Z,1.70
2022-09-10T00:30:51.591Z,3.33
2022-09-10T00:33:20.092Z,3.05
2022-09-10T00:35:47.098Z,2.25
2022-09-10T00:38:18.535Z,2.05
2022-09-10T00:40:46.008Z,1.77
2022-09-10T00:43:21.338Z,1.80
2022-09-10T00:45:53.023Z,1.63
2022-09-10T00:48:26.974Z,1.70
2022-09-10T00:50:54.946Z,2.10
2022-09-10T00:53:26.624Z,1.73
2022-09-10T00:55:56.236Z,1.60
2022-09-10T00:58:24.560Z,1.98
2022-09-10T01:00:56.401Z,1.90
2022-09-10T01:03:25.720Z,2.00
2022-09-10T01:05:53.159Z,1.92
2022-09-10T01:08:19.955Z,1.52
2022-09-10T01:10:49.856Z,1.77
2022-09-10T01:13:19.573Z,1.75
2022-09-10T01:16:09.182Z,1.83
2022-09-10T01:19:00.599Z,1.70
2022-09-10T01:21:41.369Z,1.67
2022-09-10T01:24:36.056Z,1.83
2022-09-10T01:27:24.043Z,1.80
2022-09-10T01:30:14.677Z,1.60
2022-09-10T01:32:56.624Z,1.30
2022-09-10T01:35:37.497Z,1.60
2022-09-10T01:38:09.413Z,1.73
2022-09-10T01:40:38.243Z,1.90
2022-09-10T01:43:10.462Z,1.77
2022-09-10T01:46:13.354Z,2.05
2022-09-10T01:49:01.747Z,1.85
2022-09-10T01:51:36.905Z,1.65
2022-09-10T01:54:39.071Z,1.55
2022-09-10T01:57:06.236Z,1.58
2022-09-10T01:59:43.254Z,1.70
2022-09-10T02:02:17.164Z,1.63
2022-09-10T02:04:46.663Z,2.40
2022-09-10T02:07:15.862Z,2.30
2022-09-10T02:09:42.872Z,2.00
2022-09-10T02:12:19.085Z,2.28
2022-09-10T02:14:54.096Z,2.30
2022-09-10T02:17:22.979Z,2.40
2022-09-10T02:19:52.316Z,2.25
2022-09-10T02:22:20.463Z,1.80
2022-09-10T02:24:47.264Z,1.75
2022-09-10T02:27:14.980Z,1.70
2022-09-10T02:29:42.212Z,1.58
2022-09-10T02:32:09.426Z,1.60
2022-09-10T02:34:36.963Z,1.80
2022-09-10T02:37:04.056Z,1.20
2022-09-10T02:39:31.188Z,1.15
2022-09-10T02:42:01.988Z,1.50
2022-09-10T02:44:28.889Z,1.73
2022-09-10T02:46:55.862Z,1.13
2022-09-10T02:49:22.586Z,1.58
2022-09-10T02:51:50.550Z,1.33
2022-09-10T02:54:20.486Z,0.95
2022-09-10T02:56:50.456Z,0.93
2022-09-10T02:59:20.275Z,1.02
2022-09-10T03:01:48.413Z,0.90
2022-09-10T03:04:16.039Z,1.10
2022-09-10T03:06:43.520Z,1.02
2022-09-10T03:09:11.170Z,1.30
2022-09-10T03:11:40.135Z,1.25
2022-09-10T03:14:09.227Z,1.40
2022-09-10T03:16:36.064Z,1.30
2022-09-10T03:19:02.957Z,1.10
2022-09-10T03:21:29.705Z,1.58
2022-09-10T03:23:57.234Z,1.58
2022-09-10T03:26:27.901Z,1.73
2022-09-10T03:28:54.695Z,1.75
2022-09-10T03:31:21.763Z,1.60
2022-09-10T03:33:49.292Z,1.67
2022-09-10T03:36:16.032Z,1.58
2022-09-10T03:38:42.966Z,1.35
2022-09-10T03:41:10.026Z,1.20
2022-09-10T03:43:36.937Z,1.20
2022-09-10T03:46:03.807Z,1.40
2022-09-10T03:48:30.732Z,1.42
2022-09-10T03:50:57.581Z,1.38
2022-09-10T03:53:24.478Z,1.30
2022-09-10T03:55:52.156Z,1.52
2022-09-10T03:58:19.017Z,1.83
2022-09-10T04:00:46.646Z,1.35
2022-09-10T04:03:14.600Z,1.70
2022-09-10T04:05:45.582Z,1.13
2022-09-10T04:08:13.679Z,1.33
2022-09-10T04:10:41.415Z,1.02
2022-09-10T04:13:08.350Z,1.23
2022-09-10T04:15:35.504Z,1.30
2022-09-10T04:18:02.246Z,1.27
2022-09-10T04:20:29.049Z,1.13
2022-09-10T04:22:56.773Z,1.30
2022-09-10T04:25:24.144Z,1.30
2022-09-10T04:27:51.019Z,1.42
2022-09-10T04:30:18.636Z,1.30
2022-09-10T04:32:45.435Z,1.23
2022-09-10T04:35:15.306Z,1.30
2022-09-10T04:37:43.129Z,1.17
2022-09-10T04:40:10.435Z,1.23
2022-09-10T04:42:38.209Z,1.33
2022-09-10T04:45:05.896Z,1.20
2022-09-10T04:47:34.078Z,1.20
2022-09-10T04:50:01.371Z,1.52
2022-09-10T04:52:29.011Z,1.20
2022-09-10T04:54:55.816Z,1.15
2022-09-10T04:57:23.525Z,1.50
2022-09-10T04:59:50.288Z,1.33
2022-09-10T05:02:17.027Z,1.75
2022-09-10T05:04:44.189Z,1.27
2022-09-10T05:07:11.150Z,1.45
2022-09-10T05:09:38.500Z,1.60
2022-09-10T05:12:05.627Z,1.25
2022-09-10T05:14:33.531Z,1.58
2022-09-10T05:17:00.291Z,1.50
2022-09-10T05:19:27.051Z,1.52
2022-09-10T05:21:53.857Z,1.60
2022-09-10T05:24:21.168Z,1.50
2022-09-10T05:26:48.700Z,1.23
2022-09-10T05:29:16.605Z,1.63
2022-09-10T05:31:44.382Z,1.40
2022-09-10T05:34:11.171Z,1.25
2022-09-10T05:36:37.998Z,1.40
2022-09-10T05:39:04.975Z,1.60
2022-09-10T05:41:32.127Z,1.35
2022-09-10T05:43:59.480Z,1.45
2022-09-10T05:46:29.726Z,1.10
2022-09-10T05:48:56.814Z,1.40
2022-09-10T05:51:27.822Z,1.55
2022-09-10T05:53:54.630Z,1.27
2022-09-10T05:56:21.437Z,1.40
2022-09-10T05:58:48.275Z,1.40
2022-09-10T06:01:15.442Z,1.50
2022-09-10T06:03:42.571Z,1.45
2022-09-10T06:06:09.988Z,1.10
2022-09-10T06:08:37.015Z,1.10
2022-09-10T06:11:07.756Z,1.83
2022-09-10T06:13:35.435Z,1.10
2022-09-10T06:16:02.635Z,1.40
2022-09-10T06:18:30.139Z,1.17
2022-09-10T06:21:15.331Z,1.58
2022-09-10T06:23:43.223Z,1.50
2022-09-10T06:26:17.134Z,1.20
2022-09-10T06:28:44.639Z,1.50
2022-09-10T06:31:16.970Z,1.40
2022-09-10T06:33:44.343Z,1.08
2022-09-10T06:36:14.003Z,1.45
2022-09-10T06:38:41.084Z,1.30
2022-09-10T06:41:12.093Z,1.40
2022-09-10T06:43:41.694Z,1.60
2022-09-10T06:46:40.650Z,1.50
2022-09-10T06:49:02.952Z,1.40
2022-09-10T06:51:30.313Z,1.42
2022-09-10T06:53:58.039Z,1.63
2022-09-10T06:56:25.146Z,1.40
2022-09-10T06:58:51.975Z,1.00
2022-09-10T07:01:20.565Z,1.10
2022-09-10T07:03:47.774Z,1.40
2022-09-10T07:06:16.889Z,1.77
2022-09-10T07:08:44.114Z,1.55
2022-09-10T07:11:14.745Z,1.20
2022-09-10T07:13:43.156Z,1.40
2022-09-10T07:16:10.172Z,1.30
2022-09-10T07:18:37.138Z,1.20
2022-09-10T07:21:12.843Z,1.48
2022-09-10T07:23:40.644Z,1.45
2022-09-10T07:26:13.167Z,1.33
2022-09-10T07:28:42.456Z,1.38
2022-09-10T07:31:31.446Z,1.30
2022-09-10T07:33:58.624Z,1.30
2022-09-10T07:36:25.726Z,1.50
2022-09-10T07:38:54.395Z,1.60
2022-09-10T07:41:21.759Z,1.33
2022-09-10T07:43:49.519Z,1.70
2022-09-10T07:46:20.595Z,1.35
2022-09-10T07:48:59.395Z,1.75
2022-09-10T07:51:29.175Z,1.42
2022-09-10T07:53:58.083Z,1.65
2022-09-10T07:56:25.306Z,1.60
2022-09-10T07:58:53.903Z,1.92
2022-09-10T08:01:21.139Z,1.73
2022-09-10T08:03:48.338Z,1.60
2022-09-10T08:06:16.050Z,1.75
2022-09-10T08:08:43.345Z,1.40
2022-09-10T08:11:18.110Z,1.33
2022-09-10T08:13:50.674Z,1.73
2022-09-10T08:16:25.422Z,1.60
2022-09-10T08:18:55.585Z,1.73
2022-09-10T08:21:22.548Z,1.38
2022-09-10T08:23:51.118Z,1.52
2022-09-10T08:26:18.207Z,1.52
2022-09-10T08:28:44.991Z,1.70
2022-09-10T08:31:12.959Z,1.70
2022-09-10T08:33:40.686Z,1.42
2022-09-10T08:36:10.585Z,1.45
2022-09-10T08:38:39.954Z,1.60
2022-09-10T08:41:12.233Z,1.88
2022-09-10T08:44:04.158Z,1.40
2022-09-10T08:46:40.291Z,1.65
2022-09-10T08:49:26.278Z,1.70
2022-09-10T08:52:00.859Z,1.75
2022-09-10T08:54:37.672Z,1.67
2022-09-10T08:57:06.615Z,1.77
2022-09-10T08:59:45.639Z,1.60
2022-09-10T09:02:44.653Z,1.45
2022-09-10T09:05:21.711Z,1.63
2022-09-10T09:07:49.516Z,1.40
2022-09-10T09:10:25.007Z,1.50
2022-09-10T09:13:27.457Z,2.05
2022-09-10T09:16:07.382Z,1.67
2022-09-10T09:19:15.411Z,1.63
2022-09-10T09:21:56.683Z,1.70
2022-09-10T09:24:42.695Z,1.58
2022-09-10T09:27:16.187Z,1.50
2022-09-10T09:29:50.816Z,1.45
2022-09-10T09:32:20.426Z,1.92
2022-09-10T09:34:51.361Z,1.73
2022-09-10T09:37:22.132Z,1.52
2022-09-10T09:39:59.442Z,2.20
2022-09-10T09:42:52.151Z,1.48
2022-09-10T09:45:31.734Z,1.60
2022-09-10T09:47:59.784Z,1.42
2022-09-10T09:50:35.022Z,2.15
2022-09-10T09:53:01.725Z,1.95
2022-09-10T09:55:48.661Z,2.08
2022-09-10T09:58:24.324Z,2.03
2022-09-10T10:01:04.806Z,1.65
2022-09-10T10:03:33.703Z,1.67
2022-09-10T10:06:06.492Z,1.38
2022-09-10T10:08:42.642Z,1.70
2022-09-10T10:11:10.692Z,1.70
2022-09-10T10:13:42.640Z,1.90
2022-09-10T10:16:17.318Z,1.55
2022-09-10T10:18:45.351Z,1.55
2022-09-10T10:21:29.195Z,1.98
2022-09-10T10:23:56.127Z,1.70
2022-09-10T10:26:25.882Z,1.70
2022-09-10T10:29:06.599Z,1.73
2022-09-10T10:31:38.772Z,1.30
2022-09-10T10:34:47.467Z,1.02
2022-09-10T10:37:47.018Z,1.08
2022-09-10T10:40:36.813Z,1.20
2022-09-10T10:43:18.799Z,1.13
2022-09-10T10:45:53.075Z,1.23
2022-09-10T10:48:31.585Z,1.23
2022-09-10T10:51:15.075Z,1.50
2022-09-10T10:54:02.811Z,1.25
2022-09-10T10:56:41.600Z,1.17
2022-09-10T10:59:14.758Z,1.10
2022-09-10T11:01:54.230Z,1.40
2022-09-10T11:04:51.676Z,1.33
2022-09-10T11:07:29.696Z,1.60
2022-09-10T11:10:00.186Z,1.05
2022-09-10T11:12:44.808Z,1.10
2022-09-10T11:15:20.329Z,1.42
2022-09-10T11:17:54.711Z,1.13
2022-09-10T11:20:29.965Z,1.17
2022-09-10T11:23:12.256Z,0.85
2022-09-10T11:25:56.034Z,1.13
2022-09-10T11:28:50.535Z,1.10
2022-09-10T11:31:44.791Z,1.10
2022-09-10T11:34:19.703Z,1.05
2022-09-10T11:37:05.592Z,1.10
2022-09-10T11:39:43.411Z,1.05
2022-09-10T11:42:23.456Z,1.27
2022-09-10T11:45:22.035Z,1.30
2022-09-10T11:48:10.443Z,0.98
2022-09-10T11:50:46.835Z,0.93
2022-09-10T11:53:19.552Z,1.10
2022-09-10T11:55:58.923Z,1.20
2022-09-10T11:58:34.902Z,1.15
2022-09-10T12:01:28.056Z,1.55
2022-09-10T12:04:33.475Z,1.20
2022-09-10T12:07:15.572Z,1.30
2022-09-10T12:09:57.957Z,1.35
2022-09-10T12:12:43.289Z,1.50
2022-09-10T12:15:20.910Z,1.70
2022-09-10T12:17:53.798Z,0.98
2022-09-10T12:20:41.169Z,1.20
2022-09-10T12:23:35.939Z,1.10
2022-09-10T12:26:11.917Z,1.38
2022-09-10T12:29:02.347Z,1.40
2022-09-10T12:32:23.990Z,1.33
2022-09-10T12:35:37.646Z,1.58
2022-09-10T12:38:42.551Z,1.48
2022-09-10T12:41:12.699Z,1.42
2022-09-10T12:43:40.143Z,1.23
2022-09-10T12:46:10.166Z,1.40
2022-09-10T12:48:47.661Z,1.33
2022-09-10T12:51:22.992Z,1.60
2022-09-10T12:54:11.102Z,1.63
2022-09-10T12:57:08.178Z,1.42
2022-09-10T12:59:49.881Z,1.50
2022-09-10T13:02:35.287Z,1.50
2022-09-10T13:05:27.557Z,1.48
2022-09-10T13:08:13.444Z,1.20
2022-09-10T13:10:50.062Z,1.30
2022-09-10T13:13:40.036Z,1.45
2022-09-10T13:16:20.407Z,1.50
2022-09-10T13:18:48.775Z,1.10
2022-09-10T13:21:24.379Z,1.05
2022-09-10T13:23:57.838Z,1.00
2022-09-10T13:26:38.306Z,1.10
2022-09-10T13:29:25.631Z,1.02
2022-09-10T13:32:01.757Z,1.23
2022-09-10T13:34:41.239Z,1.40
2022-09-10T13:37:36.676Z,1.40
2022-09-10T13:40:39.058Z,1.17
2022-09-10T13:43:19.053Z,1.10
2022-09-10T13:45:53.620Z,1.45
2022-09-10T13:48:30.776Z,1.27
2022-09-10T13:51:19.307Z,1.17
2022-09-10T13:53:49.092Z,1.25
2022-09-10T13:56:22.684Z,1.38
2022-09-10T13:58:53.219Z,1.17
2022-09-10T14:01:20.167Z,1.20
2022-09-10T14:03:49.832Z,1.30
2022-09-10T14:06:23.269Z,1.40
2022-09-10T14:09:02.918Z,1.17
2022-09-10T14:11:33.115Z,1.10
2022-09-10T14:14:10.722Z,1.23
2022-09-10T14:16:52.581Z,1.20
2022-09-10T14:19:24.777Z,1.30
2022-09-10T14:21:53.394Z,1.40
2022-09-10T14:24:44.575Z,1.20
2022-09-10T14:27:23.899Z,1.48
2022-09-10T14:29:52.334Z,1.25
2022-09-10T14:32:34.010Z,1.08
2022-09-10T14:35:40.214Z,1.35
2022-09-10T14:38:27.347Z,1.20
2022-09-10T14:41:11.038Z,1.38
2022-09-10T14:43:40.583Z,1.27
2022-09-10T14:46:10.136Z,1.30
2022-09-10T14:48:39.648Z,1.30
2022-09-10T14:51:35.505Z,1.30
2022-09-10T14:54:04.575Z,1.30
2022-09-10T14:56:41.643Z,1.98
2022-09-10T14:59:17.758Z,1.30
2022-09-10T15:01:48.233Z,1.50
2022-09-10T15:04:28.607Z,1.33
2022-09-10T15:06:59.930Z,1.48
2022-09-10T15:09:30.178Z,1.30
2022-09-10T15:12:03.469Z,1.33
2022-09-10T15:17:00.011Z,1.10
2022-09-10T15:19:26.908Z,1.38
2022-09-10T15:21:54.377Z,1.70
2022-09-10T15:24:22.950Z,1.38
2022-09-10T15:26:50.377Z,1.80
2022-09-10T15:29:20.638Z,1.60
2022-09-10T15:31:47.382Z,1.35
2022-09-10T15:34:16.616Z,1.50
2022-09-10T15:36:44.625Z,4.30
2022-09-10T15:39:12.741Z,6.90
2022-09-10T15:41:42.779Z,45.33
2022-09-10T15:44:10.035Z,9.93
2022-09-10T15:46:41.076Z,8.07
2022-09-10T15:49:09.509Z,2.40
2022-09-10T15:51:38.724Z,2.10
2022-09-10T15:54:08.035Z,2.22
2022-09-10T15:56:39.313Z,7.40
2022-09-10T15:59:09.817Z,3.72
2022-09-10T16:01:40.602Z,3.80
2022-09-10T16:04:10.095Z,6.85
2022-09-10T16:06:39.487Z,1.80
2022-09-10T16:09:12.329Z,2.17
2022-09-10T16:11:40.912Z,2.47
2022-09-10T16:14:13.537Z,1.90
2022-09-10T16:16:42.284Z,14.83
2022-09-10T16:19:12.478Z,7.28
2022-09-10T16:21:39.504Z,9.13
2022-09-10T16:24:12.081Z,16.92
2022-09-10T16:26:50.932Z,23.63
2022-09-10T16:29:24.236Z,23.77
2022-09-10T16:31:51.123Z,33.08
2022-09-10T16:34:20.277Z,41.38
2022-09-10T16:36:51.584Z,20.73
2022-09-10T16:39:22.921Z,48.72
2022-09-10T16:41:52.620Z,11.70
2022-09-10T16:44:25.989Z,39.13
2022-09-10T16:47:00.197Z,107.13
2022-09-10T16:49:27.628Z,56.80
2022-09-10T16:51:54.706Z,17.00
2022-09-10T16:54:29.200Z,35.55
2022-09-10T16:56:56.391Z,27.23
2022-09-10T16:59:27.882Z,30.35
2022-09-10T17:01:59.784Z,56.95
2022-09-10T17:04:29.326Z,18.05
2022-09-10T17:07:01.759Z,21.23
2022-09-10T17:09:31.178Z,52.78
2022-09-10T17:11:58.052Z,13.48
2022-09-10T17:14:26.331Z,35.30
2022-09-10T17:16:53.249Z,20.55
2022-09-10T17:19:33.198Z,20.08
2022-09-10T17:22:00.285Z,20.63
2022-09-10T17:24:31.010Z,14.60
2022-09-10T17:26:58.082Z,41.13
2022-09-10T17:29:25.824Z,27.02
2022-09-10T17:31:52.979Z,20.83
2022-09-10T17:34:21.562Z,19.45
2022-09-10T17:36:49.401Z,14.63
2022-09-10T17:39:17.687Z,31.48
2022-09-10T17:41:45.653Z,20.05
2022-09-10T17:44:13.621Z,16.15
2022-09-10T17:46:47.666Z,17.73
2022-09-10T17:49:15.529Z,15.38
2022-09-10T17:51:54.411Z,28.15
2022-09-10T17:54:21.775Z,5.10
2022-09-10T17:56:48.495Z,37.80
2022-09-10T17:59:15.481Z,23.27
2022-09-10T18:01:43.039Z,17.60
2022-09-10T18:04:12.923Z,31.30
2022-09-10T18:06:40.799Z,16.75
2022-09-10T18:09:08.695Z,28.67
2022-09-10T18:11:38.620Z,48.60
2022-09-10T18:14:06.226Z,49.35
2022-09-10T18:16:35.565Z,31.15
2022-09-10T18:19:13.885Z,83.05
2022-09-10T18:21:41.460Z,22.23
2022-09-10T18:24:13.026Z,32.72
2022-09-10T18:26:42.738Z,25.55
2022-09-10T18:29:15.626Z,24.08
2022-09-10T18:31:44.829Z,9.07
2022-09-10T18:34:17.531Z,38.75
2022-09-10T18:36:47.801Z,50.15
2022-09-10T18:39:14.706Z,43.45
2022-09-10T18:41:43.029Z,163.15
2022-09-10T18:44:24.410Z,33.53
2022-09-10T18:46:57.202Z,12.88
2022-09-10T18:49:25.607Z,4.80
2022-09-10T18:51:53.832Z,4.15
2022-09-10T18:54:22.087Z,3.15
2022-09-10T18:56:50.256Z,2.88
2022-09-10T18:59:21.644Z,2.53
2022-09-10T19:01:49.998Z,2.47
2022-09-10T19:04:22.248Z,2.17
2022-09-10T19:06:49.818Z,2.28
2022-09-10T19:09:19.145Z,2.30
2022-09-10T19:11:48.578Z,2.13
2022-09-10T19:14:19.214Z,1.75
2022-09-10T19:16:47.584Z,1.85
2022-09-10T19:19:18.548Z,2.42
2022-09-10T19:21:47.426Z,1.98
2022-09-10T19:24:15.529Z,2.03
2022-09-10T19:26:43.031Z,2.40
2022-09-10T19:29:12.210Z,2.30
2022-09-10T19:31:40.918Z,2.60
2022-09-10T19:34:09.349Z,2.63
2022-09-10T19:36:36.606Z,2.58
2022-09-10T19:39:12.043Z,3.60
2022-09-10T19:41:40.353Z,2.50
2022-09-10T19:44:08.598Z,3.47
2022-09-10T19:46:38.656Z,2.50
2022-09-10T19:49:06.558Z,2.20
2022-09-10T19:51:35.665Z,2.13
2022-09-10T19:54:03.428Z,2.03
2022-09-10T19:56:32.929Z,1.85
2022-09-10T19:59:02.559Z,1.77
2022-09-10T20:01:32.645Z,1.80
2022-09-10T20:04:07.270Z,1.98
2022-09-10T20:06:35.059Z,1.92
2022-09-10T20:09:04.207Z,2.03
2022-09-10T20:11:33.046Z,2.00
2022-09-10T20:14:02.627Z,1.67
2022-09-10T20:16:30.185Z,1.92
2022-09-10T20:18:58.012Z,1.83
2022-09-10T20:21:27.846Z,2.13
2022-09-10T20:23:56.277Z,1.92
2022-09-10T20:26:34.233Z,2.10
2022-09-10T20:29:05.263Z,2.33
2022-09-10T20:31:34.255Z,2.55
2022-09-10T20:34:03.569Z,3.85
2022-09-10T20:36:31.428Z,2.92
2022-09-10T20:38:58.752Z,2.65
2022-09-10T20:41:30.384Z,2.65
2022-09-10T20:43:59.152Z,2.63
2022-09-10T20:46:28.438Z,2.58
2022-09-10T20:49:02.861Z,3.10
2022-09-10T20:51:32.793Z,2.30
2022-09-10T20:53:59.547Z,2.35
2022-09-10T20:56:26.757Z,2.40
2022-09-10T20:58:53.503Z,2.78
2022-09-10T21:01:25.140Z,2.65
2022-09-10T21:03:53.927Z,2.60
2022-09-10T21:06:24.433Z,2.20
2022-09-10T21:08:51.516Z,2.33
2022-09-10T21:11:20.258Z,2.20
2022-09-10T21:13:58.849Z,2.25
2022-09-10T21:16:29.611Z,2.67
2022-09-10T21:19:05.234Z,2.05
2022-09-10T21:21:34.626Z,2.10
2022-09-10T21:24:04.629Z,2.15
2022-09-10T21:26:35.380Z,2.08
2022-09-10T21:29:04.349Z,2.15
2022-09-10T21:31:32.135Z,1.88
2022-09-10T21:34:03.356Z,2.05
2022-09-10T21:36:32.166Z,1.98
2022-09-10T21:39:00.632Z,2.20
2022-09-10T21:41:35.871Z,2.10
2022-09-10T21:44:06.055Z,1.95
2022-09-10T21:46:34.142Z,2.65
2022-09-10T21:49:01.119Z,2.35
2022-09-10T21:51:28.373Z,2.13
2022-09-10T21:53:56.732Z,2.70
2022-09-10T21:56:26.194Z,2.22
2022-09-10T21:58:53.783Z,2.15
2022-09-10T22:01:22.859Z,2.10
2022-09-10T22:03:51.071Z,1.83
2022-09-10T22:06:23.103Z,1.90
2022-09-10T22:08:58.713Z,4.15
2022-09-10T22:11:34.387Z,1.98
2022-09-10T22:14:03.884Z,1.70
2022-09-10T22:16:32.507Z,1.83
2022-09-10T22:19:01.615Z,1.75
2022-09-10T22:21:29.049Z,2.10
2022-09-10T22:23:55.947Z,1.90
2022-09-10T22:26:26.027Z,2.97
2022-09-10T22:28:59.275Z,3.85
2022-09-10T22:31:34.448Z,3.40
2022-09-10T22:34:11.199Z,2.28
2022-09-10T22:36:39.838Z,2.28
2022-09-10T22:39:21.235Z,2.13
2022-09-10T22:41:49.193Z,1.80
2022-09-10T22:44:18.705Z,2.58
2022-09-10T22:46:45.805Z,2.15
2022-09-10T22:49:12.598Z,2.28
2022-09-10T22:51:43.394Z,2.05
2022-09-10T22:54:10.763Z,2.10
2022-09-10T22:56:37.796Z,1.90
2022-09-10T22:59:05.090Z,2.03
2022-09-10T23:01:35.602Z,2.05
2022-09-10T23:04:03.323Z,1.85
2022-09-10T23:06:32.406Z,2.70
2022-09-10T23:09:08.368Z,2.05
2022-09-10T23:11:36.785Z,2.50
2022-09-10T23:14:07.552Z,2.40
2022-09-10T23:16:37.416Z,2.08
2022-09-10T23:19:06.484Z,2.00
2022-09-10T23:21:34.738Z,2.30
2022-09-10T23:24:04.274Z,2.00
2022-09-10T23:26:31.867Z,2.50
2022-09-10T23:29:00.437Z,1.95
2022-09-10T23:31:28.931Z,2.40
2022-09-10T23:33:58.300Z,2.15
2022-09-10T23:36:31.303Z,2.03
2022-09-10T23:38:59.005Z,2.00
2022-09-10T23:41:26.591Z,1.95
2022-09-10T23:43:54.245Z,1.75
2022-09-10T23:46:21.175Z,2.15
2022-09-10T23:48:49.381Z,2.05
2022-09-10T23:51:19.217Z,1.77
2022-09-10T23:53:46.630Z,2.50
2022-09-10T23:56:14.727Z,1.50
2022-09-10T23:58:41.547Z,1.60
